Main page
METAR-TAF:

METAR-TAF

Airports :

Mitiga International Airport

Tripoli, Libya

latitude: 32-54N, longitude: 13-17E, elevation: 11 m

Current weather observation

The report was made 2 hours and 25 minutes ago, at 01:55 UTC
Wind 6 kt from the East/Southeast
Temperature 22°C
Humidity 78%
Pressure 1012 hPa
Visibility: 7000 m
Clear sky

METAR: HLLM 170155Z 12006KT 7000 SKC 22/18 Q1012

Time: 06:20 (04:20 UTC)

Forecast

The report was made 11 hours and 20 minutes ago, at 17:00 UTC
Forecast valid from 16 at 18 UTC to 17 at 18 UTC
Wind 12 kt from the East/Southeast
Visibility: 8000 m

TAF: HLLM 161700Z 1618/1718 06012KT 8000 NSC BECMG1702/1704 12012KT

Weather observations and forecasts of more than 4000 airports (METAR and TAF reports).

The available stations are represented by yellow and red dots on the map.

Hover mouse over dot to see the name of the station.

Then click to see weather observations and forecasts.

To change the map : click on the green buttons with a black cross to zoom in, on the green button with a dash to zoom out, or on the green arrows for adjacent maps.


METAR-TAF: